sensor_id;sensor_type;location;lat;lon;timestamp;P1;durP1;ratioP1;P2;durP2;ratioP2
9801;SDS011;4940;50.900;4.672;2023-04-01T00:01:49;38.65;;;36.03;;
9801;SDS011;4940;50.900;4.672;2023-04-01T00:04:16;40.60;;;38.10;;
9801;SDS011;4940;50.900;4.672;2023-04-01T00:06:44;39.92;;;37.30;;
9801;SDS011;4940;50.900;4.672;2023-04-01T00:09:12;41.53;;;38.53;;
9801;SDS011;4940;50.900;4.672;2023-04-01T00:11:40;40.80;;;38.30;;
9801;SDS011;4940;50.900;4.672;2023-04-01T00:14:07;39.17;;;36.60;;
9801;SDS011;4940;50.900;4.672;2023-04-01T00:16:35;41.20;;;38.38;;
9801;SDS011;4940;50.900;4.672;2023-04-01T00:19:04;39.33;;;36.38;;
9801;SDS011;4940;50.900;4.672;2023-04-01T00:21:32;39.75;;;37.08;;
9801;SDS011;4940;50.900;4.672;2023-04-01T00:23:59;40.50;;;37.55;;
9801;SDS011;4940;50.900;4.672;2023-04-01T00:26:27;39.05;;;36.17;;
9801;SDS011;4940;50.900;4.672;2023-04-01T00:28:55;40.15;;;37.55;;
9801;SDS011;4940;50.900;4.672;2023-04-01T00:31:22;40.25;;;37.22;;
9801;SDS011;4940;50.900;4.672;2023-04-01T00:33:51;40.35;;;37.78;;
9801;SDS011;4940;50.900;4.672;2023-04-01T00:36:20;41.05;;;38.17;;
9801;SDS011;4940;50.900;4.672;2023-04-01T00:38:48;40.72;;;38.13;;
9801;SDS011;4940;50.900;4.672;2023-04-01T00:41:17;39.78;;;37.08;;
9801;SDS011;4940;50.900;4.672;2023-04-01T00:43:47;41.17;;;38.28;;
9801;SDS011;4940;50.900;4.672;2023-04-01T00:46:16;38.67;;;35.97;;
9801;SDS011;4940;50.900;4.672;2023-04-01T00:48:43;38.08;;;35.65;;
9801;SDS011;4940;50.900;4.672;2023-04-01T00:51:14;40.50;;;37.95;;
9801;SDS011;4940;50.900;4.672;2023-04-01T00:53:46;39.75;;;37.13;;
9801;SDS011;4940;50.900;4.672;2023-04-01T00:56:17;40.38;;;37.88;;
9801;SDS011;4940;50.900;4.672;2023-04-01T00:58:48;39.60;;;36.75;;
9801;SDS011;4940;50.900;4.672;2023-04-01T01:01:20;38.40;;;35.80;;
9801;SDS011;4940;50.900;4.672;2023-04-01T01:03:50;39.38;;;36.67;;
9801;SDS011;4940;50.900;4.672;2023-04-01T01:06:21;41.42;;;38.38;;
9801;SDS011;4940;50.900;4.672;2023-04-01T01:09:05;40.67;;;37.90;;
9801;SDS011;4940;50.900;4.672;2023-04-01T01:11:40;40.85;;;38.25;;
9801;SDS011;4940;50.900;4.672;2023-04-01T01:14:15;40.67;;;37.75;;
9801;SDS011;4940;50.900;4.672;2023-04-01T01:16:52;40.75;;;37.97;;
9801;SDS011;4940;50.900;4.672;2023-04-01T01:22:36;40.33;;;37.67;;
9801;SDS011;4940;50.900;4.672;2023-04-01T01:25:25;40.83;;;38.13;;
9801;SDS011;4940;50.900;4.672;2023-04-01T01:28:05;40.80;;;38.17;;
9801;SDS011;4940;50.900;4.672;2023-04-01T01:30:48;40.28;;;37.80;;
9801;SDS011;4940;50.900;4.672;2023-04-01T01:33:25;42.53;;;39.50;;
9801;SDS011;4940;50.900;4.672;2023-04-01T01:36:12;41.08;;;38.25;;
9801;SDS011;4940;50.900;4.672;2023-04-01T01:38:41;40.70;;;37.97;;
9801;SDS011;4940;50.900;4.672;2023-04-01T01:41:09;38.78;;;36.38;;
9801;SDS011;4940;50.900;4.672;2023-04-01T01:43:40;39.75;;;37.15;;
9801;SDS011;4940;50.900;4.672;2023-04-01T01:46:11;40.90;;;37.88;;
9801;SDS011;4940;50.900;4.672;2023-04-01T01:48:41;40.38;;;37.85;;
9801;SDS011;4940;50.900;4.672;2023-04-01T01:51:10;39.40;;;37.00;;
9801;SDS011;4940;50.900;4.672;2023-04-01T01:53:39;39.58;;;37.03;;
9801;SDS011;4940;50.900;4.672;2023-04-01T01:56:06;40.55;;;37.92;;
9801;SDS011;4940;50.900;4.672;2023-04-01T01:58:35;40.33;;;37.90;;
9801;SDS011;4940;50.900;4.672;2023-04-01T02:01:06;40.80;;;37.97;;
9801;SDS011;4940;50.900;4.672;2023-04-01T02:03:37;41.15;;;38.60;;
9801;SDS011;4940;50.900;4.672;2023-04-01T02:06:07;40.65;;;38.22;;
9801;SDS011;4940;50.900;4.672;2023-04-01T02:08:37;40.92;;;38.25;;
9801;SDS011;4940;50.900;4.672;2023-04-01T02:11:09;41.38;;;38.75;;
9801;SDS011;4940;50.900;4.672;2023-04-01T02:13:39;41.80;;;39.17;;
9801;SDS011;4940;50.900;4.672;2023-04-01T02:16:11;41.53;;;38.92;;
9801;SDS011;4940;50.900;4.672;2023-04-01T02:18:41;41.60;;;38.70;;
9801;SDS011;4940;50.900;4.672;2023-04-01T02:21:11;39.50;;;36.80;;
9801;SDS011;4940;50.900;4.672;2023-04-01T02:23:41;40.25;;;37.63;;
9801;SDS011;4940;50.900;4.672;2023-04-01T02:26:09;41.60;;;38.63;;
9801;SDS011;4940;50.900;4.672;2023-04-01T02:28:39;39.13;;;36.42;;
9801;SDS011;4940;50.900;4.672;2023-04-01T02:31:08;38.50;;;36.08;;
9801;SDS011;4940;50.900;4.672;2023-04-01T02:33:37;41.40;;;38.60;;
9801;SDS011;4940;50.900;4.672;2023-04-01T02:36:05;39.90;;;37.28;;
9801;SDS011;4940;50.900;4.672;2023-04-01T02:38:36;40.17;;;37.35;;
9801;SDS011;4940;50.900;4.672;2023-04-01T02:41:05;38.92;;;36.53;;
9801;SDS011;4940;50.900;4.672;2023-04-01T02:43:32;39.33;;;36.92;;
9801;SDS011;4940;50.900;4.672;2023-04-01T02:46:00;40.47;;;37.88;;
9801;SDS011;4940;50.900;4.672;2023-04-01T02:48:28;41.70;;;38.58;;
9801;SDS011;4940;50.900;4.672;2023-04-01T02:50:55;38.88;;;36.33;;
9801;SDS011;4940;50.900;4.672;2023-04-01T02:53:23;41.85;;;39.05;;
9801;SDS011;4940;50.900;4.672;2023-04-01T02:55:50;41.63;;;38.83;;
9801;SDS011;4940;50.900;4.672;2023-04-01T02:58:19;41.45;;;38.75;;
9801;SDS011;4940;50.900;4.672;2023-04-01T03:00:47;40.50;;;37.58;;
9801;SDS011;4940;50.900;4.672;2023-04-01T03:03:14;40.70;;;37.85;;
9801;SDS011;4940;50.900;4.672;2023-04-01T03:05:42;41.03;;;38.03;;
9801;SDS011;4940;50.900;4.672;2023-04-01T03:08:09;41.53;;;38.67;;
9801;SDS011;4940;50.900;4.672;2023-04-01T03:10:37;42.60;;;39.38;;
9801;SDS011;4940;50.900;4.672;2023-04-01T03:13:05;41.72;;;38.92;;
9801;SDS011;4940;50.900;4.672;2023-04-01T03:15:33;42.72;;;39.63;;
9801;SDS011;4940;50.900;4.672;2023-04-01T03:18:01;41.05;;;37.92;;
9801;SDS011;4940;50.900;4.672;2023-04-01T03:20:28;41.58;;;38.72;;
9801;SDS011;4940;50.900;4.672;2023-04-01T03:22:56;40.78;;;37.90;;
9801;SDS011;4940;50.900;4.672;2023-04-01T03:25:23;40.67;;;37.88;;
9801;SDS011;4940;50.900;4.672;2023-04-01T03:27:51;40.58;;;37.70;;
9801;SDS011;4940;50.900;4.672;2023-04-01T03:30:19;39.85;;;37.28;;
9801;SDS011;4940;50.900;4.672;2023-04-01T03:32:48;40.78;;;37.88;;
9801;SDS011;4940;50.900;4.672;2023-04-01T03:35:15;40.78;;;37.70;;
9801;SDS011;4940;50.900;4.672;2023-04-01T03:37:43;39.70;;;36.67;;
9801;SDS011;4940;50.900;4.672;2023-04-01T03:40:10;40.80;;;37.85;;
9801;SDS011;4940;50.900;4.672;2023-04-01T03:42:38;41.85;;;38.95;;
9801;SDS011;4940;50.900;4.672;2023-04-01T03:45:06;41.40;;;38.35;;
9801;SDS011;4940;50.900;4.672;2023-04-01T03:47:34;41.95;;;38.85;;
9801;SDS011;4940;50.900;4.672;2023-04-01T03:50:03;43.08;;;39.70;;
9801;SDS011;4940;50.900;4.672;2023-04-01T03:52:32;42.45;;;39.55;;
9801;SDS011;4940;50.900;4.672;2023-04-01T03:55:00;44.10;;;41.08;;
9801;SDS011;4940;50.900;4.672;2023-04-01T03:57:27;43.67;;;40.28;;
9801;SDS011;4940;50.900;4.672;2023-04-01T03:59:55;42.72;;;39.30;;
9801;SDS011;4940;50.900;4.672;2023-04-01T04:02:22;43.53;;;40.28;;
9801;SDS011;4940;50.900;4.672;2023-04-01T04:04:50;42.47;;;39.28;;
9801;SDS011;4940;50.900;4.672;2023-04-01T04:07:19;42.30;;;38.55;;
9801;SDS011;4940;50.900;4.672;2023-04-01T04:09:46;43.78;;;40.15;;
9801;SDS011;4940;50.900;4.672;2023-04-01T04:12:13;41.22;;;37.97;;
9801;SDS011;4940;50.900;4.672;2023-04-01T04:14:41;43.35;;;40.10;;
9801;SDS011;4940;50.900;4.672;2023-04-01T04:17:09;43.45;;;40.35;;
9801;SDS011;4940;50.900;4.672;2023-04-01T04:19:41;45.15;;;41.55;;
9801;SDS011;4940;50.900;4.672;2023-04-01T04:22:08;43.00;;;39.58;;
9801;SDS011;4940;50.900;4.672;2023-04-01T04:24:37;45.13;;;41.38;;
9801;SDS011;4940;50.900;4.672;2023-04-01T04:27:05;45.60;;;42.00;;
9801;SDS011;4940;50.900;4.672;2023-04-01T04:29:32;42.63;;;39.10;;
9801;SDS011;4940;50.900;4.672;2023-04-01T04:32:00;45.25;;;41.55;;
9801;SDS011;4940;50.900;4.672;2023-04-01T04:34:27;43.30;;;40.08;;
9801;SDS011;4940;50.900;4.672;2023-04-01T04:36:55;44.00;;;40.78;;
9801;SDS011;4940;50.900;4.672;2023-04-01T04:39:22;46.00;;;42.05;;
9801;SDS011;4940;50.900;4.672;2023-04-01T04:41:51;45.60;;;42.50;;
9801;SDS011;4940;50.900;4.672;2023-04-01T04:44:18;45.65;;;42.35;;
9801;SDS011;4940;50.900;4.672;2023-04-01T04:46:46;43.78;;;40.47;;
9801;SDS011;4940;50.900;4.672;2023-04-01T04:49:13;44.28;;;40.67;;
9801;SDS011;4940;50.900;4.672;2023-04-01T04:51:41;43.40;;;40.25;;
9801;SDS011;4940;50.900;4.672;2023-04-01T04:54:09;45.88;;;42.80;;
9801;SDS011;4940;50.900;4.672;2023-04-01T04:56:37;45.92;;;42.80;;
9801;SDS011;4940;50.900;4.672;2023-04-01T04:59:05;47.63;;;44.17;;
9801;SDS011;4940;50.900;4.672;2023-04-01T05:01:33;45.28;;;41.67;;
9801;SDS011;4940;50.900;4.672;2023-04-01T05:04:00;45.63;;;42.25;;
9801;SDS011;4940;50.900;4.672;2023-04-01T05:06:28;43.50;;;40.42;;
9801;SDS011;4940;50.900;4.672;2023-04-01T05:08:56;44.20;;;41.38;;
9801;SDS011;4940;50.900;4.672;2023-04-01T05:11:24;43.63;;;40.83;;
9801;SDS011;4940;50.900;4.672;2023-04-01T05:13:52;41.00;;;38.25;;
9801;SDS011;4940;50.900;4.672;2023-04-01T05:16:21;41.80;;;39.30;;
9801;SDS011;4940;50.900;4.672;2023-04-01T05:18:48;41.45;;;38.45;;
9801;SDS011;4940;50.900;4.672;2023-04-01T05:21:16;42.55;;;39.75;;
9801;SDS011;4940;50.900;4.672;2023-04-01T05:23:44;42.15;;;39.42;;
9801;SDS011;4940;50.900;4.672;2023-04-01T05:26:12;43.08;;;40.13;;
9801;SDS011;4940;50.900;4.672;2023-04-01T05:28:40;43.65;;;40.47;;
9801;SDS011;4940;50.900;4.672;2023-04-01T05:31:07;46.85;;;43.75;;
9801;SDS011;4940;50.900;4.672;2023-04-01T05:33:36;45.25;;;42.15;;
9801;SDS011;4940;50.900;4.672;2023-04-01T05:36:07;44.97;;;41.45;;
9801;SDS011;4940;50.900;4.672;2023-04-01T05:38:36;42.47;;;39.53;;
9801;SDS011;4940;50.900;4.672;2023-04-01T05:41:03;41.55;;;38.75;;
9801;SDS011;4940;50.900;4.672;2023-04-01T05:43:31;42.40;;;39.45;;
9801;SDS011;4940;50.900;4.672;2023-04-01T05:45:58;42.78;;;39.78;;
9801;SDS011;4940;50.900;4.672;2023-04-01T05:48:26;39.88;;;37.08;;
9801;SDS011;4940;50.900;4.672;2023-04-01T05:50:55;39.40;;;36.70;;
9801;SDS011;4940;50.900;4.672;2023-04-01T05:53:22;39.80;;;37.03;;
9801;SDS011;4940;50.900;4.672;2023-04-01T05:55:49;42.88;;;39.72;;
9801;SDS011;4940;50.900;4.672;2023-04-01T05:58:17;41.50;;;38.70;;
9801;SDS011;4940;50.900;4.672;2023-04-01T06:00:44;41.95;;;39.15;;
9801;SDS011;4940;50.900;4.672;2023-04-01T06:03:12;43.38;;;40.42;;
9801;SDS011;4940;50.900;4.672;2023-04-01T06:05:40;43.78;;;40.50;;
9801;SDS011;4940;50.900;4.672;2023-04-01T06:08:11;43.80;;;40.72;;
9801;SDS011;4940;50.900;4.672;2023-04-01T06:10:58;42.95;;;40.05;;
9801;SDS011;4940;50.900;4.672;2023-04-01T06:13:36;41.47;;;38.47;;
9801;SDS011;4940;50.900;4.672;2023-04-01T06:16:12;41.00;;;38.05;;
9801;SDS011;4940;50.900;4.672;2023-04-01T06:18:46;42.53;;;39.17;;
9801;SDS011;4940;50.900;4.672;2023-04-01T06:21:35;42.85;;;39.65;;
9801;SDS011;4940;50.900;4.672;2023-04-01T06:27:13;43.67;;;40.28;;
9801;SDS011;4940;50.900;4.672;2023-04-01T06:29:51;42.45;;;39.05;;
9801;SDS011;4940;50.900;4.672;2023-04-01T06:35:24;42.15;;;38.85;;
9801;SDS011;4940;50.900;4.672;2023-04-01T06:38:20;43.63;;;39.90;;
9801;SDS011;4940;50.900;4.672;2023-04-01T06:44:23;41.55;;;38.25;;
9801;SDS011;4940;50.900;4.672;2023-04-01T06:47:03;41.85;;;38.40;;
9801;SDS011;4940;50.900;4.672;2023-04-01T06:49:44;40.00;;;37.17;;
9801;SDS011;4940;50.900;4.672;2023-04-01T06:52:22;39.88;;;36.65;;
9801;SDS011;4940;50.900;4.672;2023-04-01T06:54:58;40.08;;;37.08;;
9801;SDS011;4940;50.900;4.672;2023-04-01T06:57:32;41.78;;;38.55;;
9801;SDS011;4940;50.900;4.672;2023-04-01T07:00:10;41.25;;;38.20;;
9801;SDS011;4940;50.900;4.672;2023-04-01T07:02:42;42.15;;;38.75;;
9801;SDS011;4940;50.900;4.672;2023-04-01T07:05:18;42.58;;;39.35;;
9801;SDS011;4940;50.900;4.672;2023-04-01T07:07:47;42.92;;;39.63;;
9801;SDS011;4940;50.900;4.672;2023-04-01T07:10:17;43.50;;;40.15;;
9801;SDS011;4940;50.900;4.672;2023-04-01T07:12:50;41.85;;;38.70;;
9801;SDS011;4940;50.900;4.672;2023-04-01T07:15:23;44.58;;;41.38;;
9801;SDS011;4940;50.900;4.672;2023-04-01T07:17:55;45.35;;;41.95;;
9801;SDS011;4940;50.900;4.672;2023-04-01T07:20:27;45.95;;;42.65;;
9801;SDS011;4940;50.900;4.672;2023-04-01T07:22:57;44.40;;;41.17;;
9801;SDS011;4940;50.900;4.672;2023-04-01T07:25:27;42.35;;;39.40;;
9801;SDS011;4940;50.900;4.672;2023-04-01T07:28:00;44.95;;;41.40;;
9801;SDS011;4940;50.900;4.672;2023-04-01T07:30:33;43.88;;;40.58;;
9801;SDS011;4940;50.900;4.672;2023-04-01T07:33:11;44.15;;;41.03;;
9801;SDS011;4940;50.900;4.672;2023-04-01T07:35:43;45.78;;;41.92;;
9801;SDS011;4940;50.900;4.672;2023-04-01T07:38:16;44.13;;;41.08;;
9801;SDS011;4940;50.900;4.672;2023-04-01T07:40:53;44.58;;;41.47;;
9801;SDS011;4940;50.900;4.672;2023-04-01T07:43:32;41.22;;;38.08;;
9801;SDS011;4940;50.900;4.672;2023-04-01T07:46:19;42.20;;;39.30;;
9801;SDS011;4940;50.900;4.672;2023-04-01T07:48:56;41.78;;;38.97;;
9801;SDS011;4940;50.900;4.672;2023-04-01T07:51:31;43.00;;;40.00;;
9801;SDS011;4940;50.900;4.672;2023-04-01T07:54:08;43.42;;;40.53;;
9801;SDS011;4940;50.900;4.672;2023-04-01T07:56:41;43.53;;;40.58;;
9801;SDS011;4940;50.900;4.672;2023-04-01T07:59:16;44.40;;;40.88;;
9801;SDS011;4940;50.900;4.672;2023-04-01T08:01:54;44.15;;;40.85;;
9801;SDS011;4940;50.900;4.672;2023-04-01T08:04:33;45.92;;;42.45;;
9801;SDS011;4940;50.900;4.672;2023-04-01T08:07:13;42.28;;;39.22;;
9801;SDS011;4940;50.900;4.672;2023-04-01T08:09:44;39.15;;;36.47;;
9801;SDS011;4940;50.900;4.672;2023-04-01T08:12:21;41.50;;;38.50;;
9801;SDS011;4940;50.900;4.672;2023-04-01T08:15:06;42.05;;;38.95;;
9801;SDS011;4940;50.900;4.672;2023-04-01T08:17:43;40.88;;;37.90;;
9801;SDS011;4940;50.900;4.672;2023-04-01T08:20:23;41.78;;;38.78;;
9801;SDS011;4940;50.900;4.672;2023-04-01T08:22:57;42.42;;;39.53;;
9801;SDS011;4940;50.900;4.672;2023-04-01T08:25:28;41.20;;;38.20;;
9801;SDS011;4940;50.900;4.672;2023-04-01T08:27:57;41.53;;;38.22;;
9801;SDS011;4940;50.900;4.672;2023-04-01T08:30:33;41.55;;;38.55;;
9801;SDS011;4940;50.900;4.672;2023-04-01T08:33:09;40.38;;;37.67;;
9801;SDS011;4940;50.900;4.672;2023-04-01T08:35:40;41.13;;;38.38;;
9801;SDS011;4940;50.900;4.672;2023-04-01T08:38:15;43.40;;;40.50;;
9801;SDS011;4940;50.900;4.672;2023-04-01T08:40:57;42.92;;;40.13;;
9801;SDS011;4940;50.900;4.672;2023-04-01T08:43:39;42.78;;;39.88;;
9801;SDS011;4940;50.900;4.672;2023-04-01T08:46:19;42.95;;;39.85;;
9801;SDS011;4940;50.900;4.672;2023-04-01T08:49:14;41.80;;;39.00;;
9801;SDS011;4940;50.900;4.672;2023-04-01T08:52:07;45.00;;;41.90;;
9801;SDS011;4940;50.900;4.672;2023-04-01T08:57:59;47.70;;;44.70;;
9801;SDS011;4940;50.900;4.672;2023-04-01T09:00:49;46.40;;;43.47;;
9801;SDS011;4940;50.900;4.672;2023-04-01T09:03:26;48.60;;;45.40;;
9801;SDS011;4940;50.900;4.672;2023-04-01T09:06:33;47.67;;;44.40;;
9801;SDS011;4940;50.900;4.672;2023-04-01T09:09:16;51.08;;;47.58;;
9801;SDS011;4940;50.900;4.672;2023-04-01T09:12:00;50.05;;;46.75;;
9801;SDS011;4940;50.900;4.672;2023-04-01T09:14:52;48.22;;;44.97;;
9801;SDS011;4940;50.900;4.672;2023-04-01T09:20:39;50.35;;;47.15;;
9801;SDS011;4940;50.900;4.672;2023-04-01T09:23:31;46.97;;;43.97;;
9801;SDS011;4940;50.900;4.672;2023-04-01T09:26:12;45.28;;;42.28;;
9801;SDS011;4940;50.900;4.672;2023-04-01T09:28:57;45.22;;;42.13;;
9801;SDS011;4940;50.900;4.672;2023-04-01T09:31:41;46.28;;;43.08;;
9801;SDS011;4940;50.900;4.672;2023-04-01T09:34:30;45.25;;;42.05;;
9801;SDS011;4940;50.900;4.672;2023-04-01T09:37:19;45.00;;;41.85;;
9801;SDS011;4940;50.900;4.672;2023-04-01T09:42:45;45.10;;;42.00;;
9801;SDS011;4940;50.900;4.672;2023-04-01T09:45:33;45.85;;;42.75;;
9801;SDS011;4940;50.900;4.672;2023-04-01T09:48:16;43.53;;;40.63;;
9801;SDS011;4940;50.900;4.672;2023-04-01T09:51:01;44.22;;;41.22;;
9801;SDS011;4940;50.900;4.672;2023-04-01T09:53:48;44.28;;;41.28;;
9801;SDS011;4940;50.900;4.672;2023-04-01T09:56:47;42.95;;;40.15;;
9801;SDS011;4940;50.900;4.672;2023-04-01T10:02:49;43.25;;;40.17;;
9801;SDS011;4940;50.900;4.672;2023-04-01T10:05:49;44.95;;;41.95;;
9801;SDS011;4940;50.900;4.672;2023-04-01T10:12:02;41.17;;;38.58;;
9801;SDS011;4940;50.900;4.672;2023-04-01T10:18:16;46.95;;;43.58;;
9801;SDS011;4940;50.900;4.672;2023-04-01T10:24:28;43.70;;;40.42;;
9801;SDS011;4940;50.900;4.672;2023-04-01T10:27:29;53.47;;;49.67;;
9801;SDS011;4940;50.900;4.672;2023-04-01T10:30:23;49.95;;;46.33;;
9801;SDS011;4940;50.900;4.672;2023-04-01T10:33:20;50.60;;;46.67;;
9801;SDS011;4940;50.900;4.672;2023-04-01T10:45:35;46.28;;;42.90;;
9801;SDS011;4940;50.900;4.672;2023-04-01T10:51:49;40.97;;;37.90;;
9801;SDS011;4940;50.900;4.672;2023-04-01T10:54:43;44.60;;;41.38;;
9801;SDS011;4940;50.900;4.672;2023-04-01T10:57:19;44.75;;;41.45;;
9801;SDS011;4940;50.900;4.672;2023-04-01T11:00:17;40.90;;;37.90;;
9801;SDS011;4940;50.900;4.672;2023-04-01T11:03:02;39.90;;;36.97;;
9801;SDS011;4940;50.900;4.672;2023-04-01T11:12:23;38.30;;;35.80;;
9801;SDS011;4940;50.900;4.672;2023-04-01T11:18:31;36.80;;;34.40;;
9801;SDS011;4940;50.900;4.672;2023-04-01T11:21:22;36.03;;;33.72;;
9801;SDS011;4940;50.900;4.672;2023-04-01T11:24:24;37.10;;;34.70;;
9801;SDS011;4940;50.900;4.672;2023-04-01T11:27:10;38.72;;;36.20;;
9801;SDS011;4940;50.900;4.672;2023-04-01T11:29:56;36.05;;;33.65;;
9801;SDS011;4940;50.900;4.672;2023-04-01T11:32:44;34.10;;;32.00;;
9801;SDS011;4940;50.900;4.672;2023-04-01T11:35:24;37.80;;;35.33;;
9801;SDS011;4940;50.900;4.672;2023-04-01T11:38:06;36.88;;;34.58;;
9801;SDS011;4940;50.900;4.672;2023-04-01T11:40:45;39.50;;;36.88;;
9801;SDS011;4940;50.900;4.672;2023-04-01T11:43:20;39.45;;;36.85;;
9801;SDS011;4940;50.900;4.672;2023-04-01T11:45:56;38.25;;;35.75;;
9801;SDS011;4940;50.900;4.672;2023-04-01T11:48:37;37.17;;;34.58;;
9801;SDS011;4940;50.900;4.672;2023-04-01T11:51:31;37.03;;;34.60;;
9801;SDS011;4940;50.900;4.672;2023-04-01T11:54:18;35.60;;;33.30;;
9801;SDS011;4940;50.900;4.672;2023-04-01T11:56:58;37.42;;;34.95;;
9801;SDS011;4940;50.900;4.672;2023-04-01T12:02:20;40.78;;;37.97;;
9801;SDS011;4940;50.900;4.672;2023-04-01T12:04:58;42.60;;;39.78;;
9801;SDS011;4940;50.900;4.672;2023-04-01T12:07:49;40.50;;;37.80;;
9801;SDS011;4940;50.900;4.672;2023-04-01T12:10:24;40.10;;;37.40;;
9801;SDS011;4940;50.900;4.672;2023-04-01T12:12:58;39.10;;;36.58;;
9801;SDS011;4940;50.900;4.672;2023-04-01T12:15:34;39.00;;;36.50;;
9801;SDS011;4940;50.900;4.672;2023-04-01T12:18:13;38.78;;;36.28;;
9801;SDS011;4940;50.900;4.672;2023-04-01T12:20:48;38.60;;;36.00;;
9801;SDS011;4940;50.900;4.672;2023-04-01T12:26:23;34.83;;;32.60;;
9801;SDS011;4940;50.900;4.672;2023-04-01T12:32:15;35.47;;;33.20;;
9801;SDS011;4940;50.900;4.672;2023-04-01T12:34:58;35.00;;;32.33;;
9801;SDS011;4940;50.900;4.672;2023-04-01T12:37:42;35.40;;;33.00;;
9801;SDS011;4940;50.900;4.672;2023-04-01T12:43:12;35.17;;;32.80;;
9801;SDS011;4940;50.900;4.672;2023-04-01T12:46:03;35.45;;;33.15;;
9801;SDS011;4940;50.900;4.672;2023-04-01T12:48:42;36.60;;;34.13;;
9801;SDS011;4940;50.900;4.672;2023-04-01T12:51:50;37.28;;;34.88;;
9801;SDS011;4940;50.900;4.672;2023-04-01T12:54:43;36.40;;;34.00;;
9801;SDS011;4940;50.900;4.672;2023-04-01T12:57:31;37.40;;;34.92;;
9801;SDS011;4940;50.900;4.672;2023-04-01T13:00:05;38.22;;;35.83;;
9801;SDS011;4940;50.900;4.672;2023-04-01T13:02:40;38.25;;;35.75;;
9801;SDS011;4940;50.900;4.672;2023-04-01T13:05:32;36.92;;;34.53;;
9801;SDS011;4940;50.900;4.672;2023-04-01T13:08:17;38.08;;;35.08;;
9801;SDS011;4940;50.900;4.672;2023-04-01T13:10:56;36.78;;;34.38;;
9801;SDS011;4940;50.900;4.672;2023-04-01T13:16:38;37.22;;;34.83;;
9801;SDS011;4940;50.900;4.672;2023-04-01T13:19:09;38.88;;;36.17;;
9801;SDS011;4940;50.900;4.672;2023-04-01T13:21:46;39.97;;;37.28;;
9801;SDS011;4940;50.900;4.672;2023-04-01T13:24:25;39.40;;;36.80;;
9801;SDS011;4940;50.900;4.672;2023-04-01T13:27:03;39.05;;;36.35;;
9801;SDS011;4940;50.900;4.672;2023-04-01T13:29:38;37.35;;;34.95;;
9801;SDS011;4940;50.900;4.672;2023-04-01T13:32:18;40.40;;;37.70;;
9801;SDS011;4940;50.900;4.672;2023-04-01T13:34:56;38.20;;;35.70;;
9801;SDS011;4940;50.900;4.672;2023-04-01T13:37:36;37.83;;;35.33;;
9801;SDS011;4940;50.900;4.672;2023-04-01T13:40:23;37.75;;;35.30;;
9801;SDS011;4940;50.900;4.672;2023-04-01T13:43:15;36.80;;;34.40;;
9801;SDS011;4940;50.900;4.672;2023-04-01T13:46:03;36.67;;;34.38;;
9801;SDS011;4940;50.900;4.672;2023-04-01T13:48:56;35.13;;;32.92;;
9801;SDS011;4940;50.900;4.672;2023-04-01T13:51:58;35.35;;;33.05;;
9801;SDS011;4940;50.900;4.672;2023-04-01T13:54:57;38.53;;;36.03;;
9801;SDS011;4940;50.900;4.672;2023-04-01T13:57:51;36.55;;;34.15;;
9801;SDS011;4940;50.900;4.672;2023-04-01T14:00:51;37.75;;;35.33;;
9801;SDS011;4940;50.900;4.672;2023-04-01T14:03:30;36.88;;;34.47;;
9801;SDS011;4940;50.900;4.672;2023-04-01T14:06:15;40.03;;;37.42;;
9801;SDS011;4940;50.900;4.672;2023-04-01T14:11:51;36.38;;;34.10;;
9801;SDS011;4940;50.900;4.672;2023-04-01T14:14:26;38.92;;;36.42;;
9801;SDS011;4940;50.900;4.672;2023-04-01T14:20:02;37.00;;;34.65;;
9801;SDS011;4940;50.900;4.672;2023-04-01T14:22:50;38.53;;;35.97;;
9801;SDS011;4940;50.900;4.672;2023-04-01T14:25:39;37.22;;;34.83;;
9801;SDS011;4940;50.900;4.672;2023-04-01T14:28:30;38.08;;;35.65;;
9801;SDS011;4940;50.900;4.672;2023-04-01T14:31:15;39.65;;;36.92;;
9801;SDS011;4940;50.900;4.672;2023-04-01T14:33:57;40.67;;;37.88;;
9801;SDS011;4940;50.900;4.672;2023-04-01T14:36:40;40.47;;;37.58;;
9801;SDS011;4940;50.900;4.672;2023-04-01T14:39:15;40.28;;;37.47;;
9801;SDS011;4940;50.900;4.672;2023-04-01T14:41:51;39.33;;;36.72;;
9801;SDS011;4940;50.900;4.672;2023-04-01T14:44:40;41.40;;;38.50;;
9801;SDS011;4940;50.900;4.672;2023-04-01T14:50:11;41.75;;;38.90;;
9801;SDS011;4940;50.900;4.672;2023-04-01T14:52:44;40.70;;;37.90;;
9801;SDS011;4940;50.900;4.672;2023-04-01T14:55:25;39.85;;;37.17;;
9801;SDS011;4940;50.900;4.672;2023-04-01T14:57:58;41.40;;;38.65;;
9801;SDS011;4940;50.900;4.672;2023-04-01T15:00:27;40.67;;;37.97;;
9801;SDS011;4940;50.900;4.672;2023-04-01T15:03:13;40.42;;;37.83;;
9801;SDS011;4940;50.900;4.672;2023-04-01T15:05:48;38.83;;;36.17;;
9801;SDS011;4940;50.900;4.672;2023-04-01T15:08:21;36.40;;;34.10;;
9801;SDS011;4940;50.900;4.672;2023-04-01T15:10:58;37.35;;;34.90;;
9801;SDS011;4940;50.900;4.672;2023-04-01T15:14:01;35.05;;;32.75;;
9801;SDS011;4940;50.900;4.672;2023-04-01T15:17:05;35.20;;;32.90;;
9801;SDS011;4940;50.900;4.672;2023-04-01T15:19:50;31.55;;;29.45;;
9801;SDS011;4940;50.900;4.672;2023-04-01T15:22:32;32.67;;;30.65;;
9801;SDS011;4940;50.900;4.672;2023-04-01T15:25:21;31.05;;;29.25;;
9801;SDS011;4940;50.900;4.672;2023-04-01T15:28:01;32.13;;;30.13;;
9801;SDS011;4940;50.900;4.672;2023-04-01T15:30:36;32.60;;;30.60;;
9801;SDS011;4940;50.900;4.672;2023-04-01T15:33:24;33.33;;;31.23;;
9801;SDS011;4940;50.900;4.672;2023-04-01T15:36:10;33.53;;;31.35;;
9801;SDS011;4940;50.900;4.672;2023-04-01T15:38:50;33.22;;;30.92;;
9801;SDS011;4940;50.900;4.672;2023-04-01T15:41:27;33.22;;;31.13;;
9801;SDS011;4940;50.900;4.672;2023-04-01T15:44:24;32.90;;;30.90;;
9801;SDS011;4940;50.900;4.672;2023-04-01T15:47:00;32.50;;;30.50;;
9801;SDS011;4940;50.900;4.672;2023-04-01T15:49:34;35.33;;;33.13;;
9801;SDS011;4940;50.900;4.672;2023-04-01T15:52:10;33.42;;;31.00;;
9801;SDS011;4940;50.900;4.672;2023-04-01T15:57:55;31.35;;;29.35;;
9801;SDS011;4940;50.900;4.672;2023-04-01T16:00:41;32.70;;;30.60;;
9801;SDS011;4940;50.900;4.672;2023-04-01T16:03:15;34.15;;;31.92;;
9801;SDS011;4940;50.900;4.672;2023-04-01T16:05:56;35.50;;;33.30;;
9801;SDS011;4940;50.900;4.672;2023-04-01T16:11:27;33.53;;;31.23;;
9801;SDS011;4940;50.900;4.672;2023-04-01T16:14:09;33.92;;;31.52;;
9801;SDS011;4940;50.900;4.672;2023-04-01T16:16:48;32.47;;;30.45;;
9801;SDS011;4940;50.900;4.672;2023-04-01T16:19:30;32.17;;;30.08;;
9801;SDS011;4940;50.900;4.672;2023-04-01T16:22:05;32.75;;;30.65;;
9801;SDS011;4940;50.900;4.672;2023-04-01T16:24:38;31.98;;;29.98;;
9801;SDS011;4940;50.900;4.672;2023-04-01T16:27:12;33.67;;;31.48;;
9801;SDS011;4940;50.900;4.672;2023-04-01T16:29:45;33.70;;;31.60;;
9801;SDS011;4940;50.900;4.672;2023-04-01T16:32:21;36.45;;;33.85;;
9801;SDS011;4940;50.900;4.672;2023-04-01T16:35:16;36.45;;;33.95;;
9801;SDS011;4940;50.900;4.672;2023-04-01T16:37:53;33.75;;;31.45;;
9801;SDS011;4940;50.900;4.672;2023-04-01T16:40:32;34.92;;;32.53;;
9801;SDS011;4940;50.900;4.672;2023-04-01T16:43:10;35.47;;;32.97;;
9801;SDS011;4940;50.900;4.672;2023-04-01T16:45:45;34.00;;;31.70;;
9801;SDS011;4940;50.900;4.672;2023-04-01T16:48:20;34.85;;;32.45;;
9801;SDS011;4940;50.900;4.672;2023-04-01T16:50:54;36.38;;;33.75;;
9801;SDS011;4940;50.900;4.672;2023-04-01T16:53:30;37.80;;;35.20;;
9801;SDS011;4940;50.900;4.672;2023-04-01T16:56:04;37.80;;;35.10;;
9801;SDS011;4940;50.900;4.672;2023-04-01T16:58:40;36.80;;;34.20;;
9801;SDS011;4940;50.900;4.672;2023-04-01T17:01:13;36.25;;;33.70;;
9801;SDS011;4940;50.900;4.672;2023-04-01T17:03:49;36.75;;;34.15;;
9801;SDS011;4940;50.900;4.672;2023-04-01T17:06:23;39.38;;;36.58;;
9801;SDS011;4940;50.900;4.672;2023-04-01T17:09:03;37.45;;;34.75;;
9801;SDS011;4940;50.900;4.672;2023-04-01T17:11:42;37.83;;;35.05;;